Time;durP1;ratioP1;P1;durP2;ratioP2;P2;SDS_P1;SDS_P2;PMS_P1;PMS_P2;Temp;Humidity;BMP_temperature;BMP_pressure;BME280_temperature;BME280_humidity;BME280_pressure;Samples;Min_cycle;Max_cycle;Signal;HPM_P1;HPM_P2
2022/05/29 00:02:13;;;;;;;4.20;2.00;;;;;;;7.08;69.13;96390.78;107577;1273;32360;-74
2022/05/29 00:04:46;;;;;;;4.40;2.20;;;;;;;6.92;69.57;96383.84;107532;1271;50224;-74
2022/05/29 00:07:20;;;;;;;2.90;1.60;;;;;;;6.92;69.64;96384.27;107429;1271;45293;-74
2022/05/29 00:09:52;;;;;;;3.10;1.70;;;;;;;6.78;69.80;96383.59;107420;1271;52310;-74
2022/05/29 00:12:24;;;;;;;2.70;1.90;;;;;;;6.59;69.98;96380.46;107482;1273;32750;-73
2022/05/29 00:14:55;;;;;;;2.70;1.50;;;;;;;6.50;70.34;96383.45;107500;1273;36568;-73
2022/05/29 00:17:26;;;;;;;2.90;1.50;;;;;;;6.48;70.68;96383.02;107562;1271;38514;-73
2022/05/29 00:19:57;;;;;;;3.40;1.60;;;;;;;6.39;70.56;96378.34;107527;1273;30771;-73
2022/05/29 00:22:31;;;;;;;2.50;1.30;;;;;;;6.26;70.94;96379.13;107523;1273;38079;-73
2022/05/29 00:25:06;;;;;;;4.00;1.60;;;;;;;6.06;71.38;96377.86;107601;1271;31001;-73
2022/05/29 00:27:37;;;;;;;3.20;1.70;;;;;;;5.99;71.89;96379.97;107470;1271;46549;-73
2022/05/29 00:30:12;;;;;;;3.20;1.50;;;;;;;6.04;72.18;96379.48;107506;1271;68815;-73
2022/05/29 00:32:43;;;;;;;3.80;2.10;;;;;;;6.24;72.29;96380.11;107716;1271;27716;-73
2022/05/29 00:35:14;;;;;;;4.70;2.30;;;;;;;6.51;72.21;96374.69;107691;1271;39036;-73
2022/05/29 00:37:47;;;;;;;4.90;2.30;;;;;;;6.70;71.54;96374.35;107684;1271;35048;-73
2022/05/29 00:40:29;;;;;;;4.10;2.30;;;;;;;6.79;71.35;96374.11;107534;1271;35853;-74
2022/05/29 00:43:00;;;;;;;3.80;1.80;;;;;;;6.77;71.10;96373.44;107615;1270;32949;-73
2022/05/29 00:45:46;;;;;;;3.50;1.80;;;;;;;6.84;70.96;96373.06;107608;1271;36179;-72
2022/05/29 00:48:21;;;;;;;4.40;1.80;;;;;;;6.91;70.69;96371.14;107572;1271;35494;-74
2022/05/29 00:50:55;;;;;;;6.00;2.10;;;;;;;7.01;70.52;96371.41;107628;1270;28266;-73
2022/05/29 00:53:27;;;;;;;4.80;2.20;;;;;;;7.00;70.10;96374.48;107565;1271;31513;-73
2022/05/29 00:56:06;;;;;;;2.70;1.80;;;;;;;7.05;70.14;96373.49;107424;1271;50347;-74
2022/05/29 00:58:38;;;;;;;4.00;2.30;;;;;;;7.04;69.86;96375.07;107711;1269;37699;-73
2022/05/29 01:01:09;;;;;;;4.30;1.80;;;;;;;7.00;69.92;96378.90;107759;1268;54585;-73
2022/05/29 01:03:40;;;;;;;3.70;1.90;;;;;;;6.94;69.68;96374.16;107763;1271;32252;-74
2022/05/29 01:06:11;;;;;;;4.40;1.80;;;;;;;6.90;69.84;96373.13;107807;1268;34521;-73
2022/05/29 01:08:45;;;;;;;5.20;2.00;;;;;;;6.82;70.00;96375.06;107584;1271;52088;-74
2022/05/29 01:11:31;;;;;;;3.30;1.90;;;;;;;6.89;69.98;96371.08;107575;1270;65967;-73
2022/05/29 01:14:24;;;;;;;3.30;1.60;;;;;;;6.97;69.84;96369.10;107463;1270;56961;-74
2022/05/29 01:17:04;;;;;;;4.20;1.40;;;;;;;6.99;69.73;96372.94;107719;1271;32220;-74
2022/05/29 01:20:15;;;;;;;2.00;1.30;;;;;;;6.91;69.64;96375.55;107595;1271;46742;-73
2022/05/29 01:23:00;;;;;;;3.00;2.20;;;;;;;6.84;69.87;96374.96;107587;1270;53917;-74
2022/05/29 01:26:02;;;;;;;3.30;1.50;;;;;;;6.81;69.92;96372.70;107570;1270;49729;-73
2022/05/29 01:28:49;;;;;;;3.40;1.90;;;;;;;6.78;69.74;96374.85;107668;1271;31298;-73
2022/05/29 01:31:44;;;;;;;2.20;1.60;;;;;;;6.75;69.86;96376.42;107751;1268;35918;-74
2022/05/29 01:34:27;;;;;;;1.80;1.30;;;;;;;6.79;69.99;96378.28;107710;1271;31735;-74
2022/05/29 01:37:10;;;;;;;3.30;1.70;;;;;;;6.81;69.82;96371.91;107798;1271;28361;-73
2022/05/29 01:39:54;;;;;;;3.60;1.70;;;;;;;6.82;69.80;96370.48;107800;1268;42442;-74
2022/05/29 01:42:33;;;;;;;3.70;1.70;;;;;;;6.72;69.65;96372.92;107696;1271;40612;-73
2022/05/29 01:45:13;;;;;;;4.10;1.60;;;;;;;6.69;69.75;96377.71;107601;1271;50913;-73
2022/05/29 01:47:48;;;;;;;2.70;1.40;;;;;;;6.68;69.75;96377.03;107779;1271;42739;-73
2022/05/29 01:50:25;;;;;;;4.00;1.60;;;;;;;6.62;69.79;96377.80;103909;1269;2098134;-76
2022/05/29 01:53:01;;;;;;;3.30;1.50;;;;;;;6.64;70.22;96375.65;105908;1271;1858183;-76
2022/05/29 01:55:41;;;;;;;3.00;1.70;;;;;;;6.68;70.11;96376.92;105898;1268;2181168;-75
2022/05/29 01:58:17;;;;;;;4.90;1.60;;;;;;;6.72;70.30;96378.41;108181;1265;40004;-73
2022/05/29 02:00:50;;;;;;;3.20;1.30;;;;;;;6.88;70.06;96380.51;108096;1265;30190;-73
2022/05/29 02:03:26;;;;;;;4.10;1.50;;;;;;;6.83;70.02;96389.77;108139;1265;38878;-73
2022/05/29 02:06:00;;;;;;;2.40;1.10;;;;;;;6.74;70.18;96388.86;108099;1265;31673;-74
2022/05/29 02:08:43;;;;;;;1.90;1.30;;;;;;;6.56;70.39;96398.58;107985;1265;44375;-74
2022/05/29 02:11:20;;;;;;;3.70;2.00;;;;;;;6.59;70.40;96396.54;108139;1265;32670;-73
2022/05/29 02:13:57;;;;;;;4.30;1.40;;;;;;;6.72;70.39;96395.84;107965;1265;57626;-74
2022/05/29 02:16:35;;;;;;;3.20;1.40;;;;;;;6.66;70.16;96398.05;108072;1264;40905;-73
2022/05/29 02:19:11;;;;;;;2.70;1.60;;;;;;;6.52;70.41;96400.46;108017;1265;30436;-73
2022/05/29 02:21:48;;;;;;;3.40;1.50;;;;;;;6.36;70.68;96402.81;108169;1265;35894;-73
2022/05/29 02:24:23;;;;;;;2.80;1.40;;;;;;;6.24;70.90;96401.86;107930;1264;47948;-74
2022/05/29 02:27:08;;;;;;;3.60;1.40;;;;;;;6.13;71.13;96404.69;108019;1264;43710;-74
2022/05/29 02:29:40;;;;;;;2.40;1.10;;;;;;;5.80;71.44;96402.65;108067;1264;43673;-74
2022/05/29 02:32:19;;;;;;;2.60;1.20;;;;;;;5.58;72.26;96401.84;108128;1265;30021;-74
2022/05/29 02:35:01;;;;;;;2.20;1.00;;;;;;;5.51;73.14;96405.21;108154;1265;36120;-73
2022/05/29 02:37:38;;;;;;;3.10;1.50;;;;;;;5.46;73.73;96402.37;108164;1264;36235;-73
2022/05/29 02:40:21;;;;;;;1.70;1.00;;;;;;;5.38;74.18;96401.80;108104;1264;53547;-74
2022/05/29 02:43:04;;;;;;;3.20;1.40;;;;;;;5.27;74.68;96401.80;108086;1265;30141;-74
2022/05/29 02:45:38;;;;;;;3.90;1.70;;;;;;;5.25;75.11;96406.15;108110;1264;31706;-73
2022/05/29 02:48:18;;;;;;;6.90;1.50;;;;;;;5.33;75.45;96411.48;108104;1264;44215;-73
2022/05/29 02:50:56;;;;;;;2.00;1.30;;;;;;;5.42;75.63;96409.35;108057;1265;50800;-73
2022/05/29 02:53:27;;;;;;;3.20;1.50;;;;;;;5.47;75.76;96410.19;108043;1265;36753;-73
2022/05/29 02:55:59;;;;;;;4.80;1.50;;;;;;;5.61;75.78;96411.13;108011;1265;45952;-74
2022/05/29 02:58:34;;;;;;;3.90;1.90;;;;;;;5.77;75.60;96410.94;107938;1264;67207;-73
2022/05/29 03:01:21;;;;;;;2.50;1.80;;;;;;;5.87;75.51;96411.39;108166;1262;53371;-72
2022/05/29 03:04:07;;;;;;;2.40;1.30;;;;;;;5.96;75.32;96407.01;108083;1264;37289;-72
2022/05/29 03:06:51;;;;;;;2.20;1.50;;;;;;;6.07;75.41;96404.75;108037;1264;31211;-72
2022/05/29 03:10:04;;;;;;;4.10;1.50;;;;;;;6.22;75.07;96409.90;107958;1265;39090;-72
2022/05/29 03:12:44;;;;;;;3.90;1.90;;;;;;;6.36;74.89;96412.92;109267;1268;40811;-72
2022/05/29 03:15:25;;;;;;;4.70;1.80;;;;;;;6.46;74.88;96410.13;107856;1268;34147;-72
2022/05/29 03:18:08;;;;;;;3.70;1.80;;;;;;;6.56;74.62;96410.95;107633;1268;45495;-72
2022/05/29 03:20:49;;;;;;;6.00;1.90;;;;;;;6.68;74.42;96410.16;107740;1268;45265;-72
2022/05/29 03:23:30;;;;;;;5.10;2.10;;;;;;;6.73;74.22;96410.81;107714;1266;47680;-72
2022/05/29 03:26:07;;;;;;;4.20;1.60;;;;;;;6.78;74.10;96408.63;107741;1267;48795;-71
2022/05/29 03:28:48;;;;;;;3.60;1.90;;;;;;;6.86;73.86;96412.44;107705;1268;35884;-72
2022/05/29 03:31:25;;;;;;;3.20;1.70;;;;;;;6.94;73.65;96404.67;108135;1264;30912;-72
2022/05/29 03:33:57;;;;;;;3.20;2.00;;;;;;;6.98;73.67;96405.52;108065;1264;42191;-72
2022/05/29 03:36:28;;;;;;;6.10;1.90;;;;;;;7.02;73.44;96402.89;108067;1265;34604;-71
2022/05/29 03:38:59;;;;;;;6.50;1.80;;;;;;;7.07;73.28;96405.29;108053;1264;39940;-72
2022/05/29 03:41:39;;;;;;;3.60;1.70;;;;;;;7.09;73.20;96404.39;108192;1264;31915;-72
2022/05/29 03:44:10;;;;;;;6.40;2.10;;;;;;;7.11;73.31;96404.55;108120;1264;34382;-72
2022/05/29 03:46:42;;;;;;;4.00;1.90;;;;;;;7.15;73.36;96401.75;108188;1264;32799;-72
2022/05/29 03:49:15;;;;;;;2.80;1.60;;;;;;;7.21;73.39;96405.48;108229;1264;40120;-72
2022/05/29 03:51:46;;;;;;;5.00;1.80;;;;;;;7.25;73.24;96401.14;108142;1264;32753;-72
2022/05/29 03:54:18;;;;;;;3.60;1.70;;;;;;;7.29;73.01;96405.00;108118;1264;46794;-72
2022/05/29 03:56:49;;;;;;;4.40;2.00;;;;;;;7.33;72.85;96408.45;108054;1265;42515;-72
2022/05/29 03:59:20;;;;;;;4.90;1.60;;;;;;;7.40;72.67;96411.48;108119;1261;33292;-72
2022/05/29 04:01:52;;;;;;;4.50;1.80;;;;;;;7.52;72.79;96412.89;108047;1264;34319;-72
2022/05/29 04:04:23;;;;;;;4.20;1.80;;;;;;;7.63;73.03;96407.09;108096;1264;28308;-72
2022/05/29 04:06:54;;;;;;;3.60;1.50;;;;;;;7.76;72.69;96410.09;108000;1265;37898;-72
2022/05/29 04:12:15;;;;;;;3.80;2.10;;;;;;;8.02;72.52;96403.52;107968;1265;30087;-72
2022/05/29 04:14:46;;;;;;;4.40;1.80;;;;;;;8.17;72.70;96401.75;108085;1264;32521;-73
2022/05/29 04:17:21;;;;;;;5.30;1.90;;;;;;;8.32;72.29;96403.67;108009;1265;35899;-73
2022/05/29 04:19:51;;;;;;;3.70;2.00;;;;;;;8.45;72.01;96408.32;107895;1265;39189;-72
2022/05/29 04:22:23;;;;;;;4.20;2.00;;;;;;;8.59;71.70;96404.30;107967;1264;47157;-72
2022/05/29 04:24:54;;;;;;;4.20;1.70;;;;;;;8.70;71.00;96402.52;107881;1265;43298;-72
2022/05/29 04:27:24;;;;;;;4.80;2.10;;;;;;;8.79;70.66;96403.91;107893;1265;47014;-72
2022/05/29 04:29:56;;;;;;;4.20;2.10;;;;;;;8.88;70.40;96403.27;107910;1265;41886;-72
2022/05/29 04:35:15;;;;;;;4.80;2.00;;;;;;;9.10;69.77;96404.91;107982;1265;41240;-72
2022/05/29 04:37:48;;;;;;;4.20;2.10;;;;;;;9.14;69.30;96404.35;108092;1264;41064;-72
2022/05/29 04:40:20;;;;;;;3.10;2.10;;;;;;;9.19;69.13;96405.60;106626;1265;2011327;-72
2022/05/29 04:42:51;;;;;;;4.90;2.50;;;;;;;9.23;69.07;96404.92;107949;1265;36685;-72
2022/05/29 04:45:24;;;;;;;4.00;2.20;;;;;;;9.29;68.94;96405.48;108094;1265;33116;-72
2022/05/29 04:47:55;;;;;;;4.60;2.20;;;;;;;9.35;68.42;96399.90;108100;1264;33921;-71
2022/05/29 04:50:26;;;;;;;4.80;2.10;;;;;;;9.37;68.32;96402.79;108130;1264;28284;-71
2022/05/29 04:52:57;;;;;;;4.60;2.40;;;;;;;9.40;67.67;96404.19;108124;1264;36435;-72
2022/05/29 04:55:28;;;;;;;3.30;1.90;;;;;;;9.44;67.66;96404.48;108104;1264;35381;-72
2022/05/29 04:57:59;;;;;;;4.30;2.40;;;;;;;9.61;67.48;96405.05;108050;1265;45423;-72
2022/05/29 05:00:30;;;;;;;5.40;2.00;;;;;;;9.86;67.06;96403.73;108147;1261;39549;-71
2022/05/29 05:03:01;;;;;;;4.40;2.20;;;;;;;10.11;66.54;96403.45;108236;1264;30450;-72
2022/05/29 05:05:32;;;;;;;3.50;2.20;;;;;;;10.44;66.26;96401.14;108187;1264;29840;-72
2022/05/29 05:08:04;;;;;;;4.10;2.10;;;;;;;11.14;65.50;96402.23;108161;1264;36657;-72
2022/05/29 05:10:35;;;;;;;4.00;2.20;;;;;;;13.26;65.19;96395.65;108174;1264;35162;-72
2022/05/29 05:13:08;;;;;;;3.30;2.00;;;;;;;16.03;61.08;96393.23;108178;1264;54523;-73
2022/05/29 05:15:48;;;;;;;4.50;2.40;;;;;;;18.34;57.97;96385.86;108278;1264;35661;-73
2022/05/29 05:18:19;;;;;;;3.50;1.90;;;;;;;20.34;52.08;96384.27;108198;1264;33678;-73
2022/05/29 05:20:50;;;;;;;5.40;2.30;;;;;;;22.01;51.49;96376.19;108245;1264;31327;-72
2022/05/29 05:23:21;;;;;;;3.40;2.00;;;;;;;23.48;47.61;96378.64;108162;1264;32823;-72
2022/05/29 05:25:54;;;;;;;3.80;2.30;;;;;;;24.18;45.17;96377.23;108209;1264;44845;-71
2022/05/29 05:28:25;;;;;;;4.70;2.20;;;;;;;24.99;41.97;96372.61;108152;1264;31667;-72
2022/05/29 05:30:57;;;;;;;5.10;2.30;;;;;;;25.20;40.98;96374.61;108159;1264;52687;-70
2022/05/29 05:33:28;;;;;;;2.90;2.10;;;;;;;26.23;39.40;96368.21;108123;1264;38552;-70
2022/05/29 05:35:59;;;;;;;3.90;1.80;;;;;;;26.79;38.45;96367.89;108134;1262;55458;-70
2022/05/29 05:38:31;;;;;;;3.80;2.10;;;;;;;27.77;38.13;96372.74;108090;1264;36543;-69
2022/05/29 05:41:02;;;;;;;3.50;1.80;;;;;;;28.35;36.02;96376.59;108248;1264;33924;-70
2022/05/29 05:43:33;;;;;;;4.60;1.90;;;;;;;28.66;34.48;96371.86;108206;1264;44621;-69
2022/05/29 05:46:06;;;;;;;4.40;1.60;;;;;;;28.86;33.91;96372.80;108188;1264;33809;-69
2022/05/29 05:48:38;;;;;;;2.80;1.60;;;;;;;28.94;32.81;96372.18;108154;1264;29651;-71
2022/05/29 05:51:10;;;;;;;2.60;1.20;;;;;;;28.39;30.83;96376.79;108175;1264;33993;-69
2022/05/29 05:53:43;;;;;;;3.00;1.60;;;;;;;27.76;30.04;96375.08;108245;1264;36738;-70
2022/05/29 05:56:15;;;;;;;2.80;1.40;;;;;;;27.34;30.62;96372.66;108298;1264;32592;-70
2022/05/29 05:58:46;;;;;;;4.30;2.00;;;;;;;27.67;29.32;96374.74;108265;1264;30475;-72
2022/05/29 06:01:19;;;;;;;3.40;1.50;;;;;;;26.82;28.95;96370.21;108257;1264;27788;-70
2022/05/29 06:03:51;;;;;;;3.10;1.70;;;;;;;26.42;29.77;96370.52;108171;1264;43864;-69
2022/05/29 06:06:23;;;;;;;2.30;1.20;;;;;;;26.92;29.46;96365.55;108198;1264;35290;-69
2022/05/29 06:08:56;;;;;;;3.80;1.40;;;;;;;26.81;29.45;96364.79;108097;1264;35788;-69
2022/05/29 06:11:28;;;;;;;5.50;1.60;;;;;;;27.54;29.89;96367.14;108163;1264;32279;-69
2022/05/29 06:13:59;;;;;;;3.10;1.40;;;;;;;28.64;29.23;96364.55;108215;1264;34526;-70
2022/05/29 06:16:30;;;;;;;3.10;1.10;;;;;;;29.18;28.65;96367.75;108212;1264;28494;-69
2022/05/29 06:19:02;;;;;;;3.00;1.30;;;;;;;29.26;27.12;96362.98;108271;1264;30211;-70
2022/05/29 06:21:34;;;;;;;2.50;1.30;;;;;;;28.91;28.17;96363.86;108319;1264;29447;-70
2022/05/29 06:24:06;;;;;;;3.20;1.20;;;;;;;29.96;27.38;96361.02;108286;1264;34435;-70
2022/05/29 06:26:37;;;;;;;2.50;1.00;;;;;;;30.22;26.68;96356.30;108291;1264;26757;-69
2022/05/29 06:29:08;;;;;;;3.90;1.50;;;;;;;30.41;25.85;96356.89;108240;1264;32457;-71
2022/05/29 06:31:39;;;;;;;2.50;1.30;;;;;;;31.09;27.04;96356.96;108232;1264;33477;-70
2022/05/29 06:34:10;;;;;;;2.70;1.40;;;;;;;32.91;26.77;96358.57;108250;1264;30820;-70
2022/05/29 06:36:42;;;;;;;1.90;1.20;;;;;;;34.05;24.64;96355.45;108283;1264;35981;-70
2022/05/29 06:39:13;;;;;;;3.50;1.60;;;;;;;32.80;23.38;96359.11;108333;1264;29500;-70
2022/05/29 06:41:56;;;;;;;3.60;1.30;;;;;;;32.29;24.38;96365.41;108281;1264;35607;-71
2022/05/29 06:44:37;;;;;;;3.10;1.20;;;;;;;32.04;24.04;96362.66;108200;1264;36249;-70
2022/05/29 06:47:09;;;;;;;4.10;1.50;;;;;;;33.27;24.06;96365.02;108183;1264;34305;-70
2022/05/29 06:49:41;;;;;;;2.30;1.10;;;;;;;33.82;23.58;96363.52;108260;1264;32422;-70
2022/05/29 06:52:18;;;;;;;2.60;1.30;;;;;;;34.37;22.46;96356.93;108163;1264;37954;-70
2022/05/29 06:54:53;;;;;;;4.10;1.30;;;;;;;33.12;21.66;96362.64;108323;1264;32214;-70
2022/05/29 06:57:41;;;;;;;2.80;1.30;;;;;;;33.30;22.44;96359.52;108143;1264;32212;-70
2022/05/29 07:09:06;;;;;;;3.30;1.40;;;;;;;37.65;21.19;96351.77;108211;1264;39911;-70
2022/05/29 07:11:48;;;;;;;3.20;1.50;;;;;;;37.47;19.53;96346.88;108194;1264;33706;-71
2022/05/29 07:14:30;;;;;;;2.70;1.50;;;;;;;36.16;19.82;96339.23;108228;1264;34435;-71
2022/05/29 07:17:07;;;;;;;3.10;1.50;;;;;;;37.23;20.91;96341.33;108243;1264;30466;-70
2022/05/29 07:19:45;;;;;;;3.20;1.40;;;;;;;38.20;20.57;96329.66;108244;1264;38865;-70
2022/05/29 07:22:20;;;;;;;3.70;1.80;;;;;;;38.84;19.63;96332.20;108197;1264;31544;-71
2022/05/29 07:24:51;;;;;;;2.00;1.50;;;;;;;38.33;18.45;96330.38;108166;1264;36185;-71
2022/05/29 07:27:29;;;;;;;3.50;1.70;;;;;;;37.38;18.97;96329.11;108159;1264;31441;-71
2022/05/29 07:30:13;;;;;;;2.00;1.50;;;;;;;37.56;19.20;96330.35;108203;1264;32234;-71
2022/05/29 07:32:56;;;;;;;3.70;1.50;;;;;;;36.73;18.25;96328.40;108254;1263;38950;-72
2022/05/29 07:35:29;;;;;;;3.60;1.40;;;;;;;35.06;19.06;96325.04;108210;1264;40856;-70
2022/05/29 07:38:13;;;;;;;2.10;1.40;;;;;;;34.46;19.31;96323.86;108106;1264;58005;-71
2022/05/29 07:40:51;;;;;;;2.80;1.40;;;;;;;34.64;19.73;96322.83;108157;1264;33668;-71
2022/05/29 07:43:27;;;;;;;2.60;1.40;;;;;;;33.55;19.26;96322.42;108131;1264;58659;-71
2022/05/29 07:46:02;;;;;;;3.00;1.70;;;;;;;31.10;20.58;96321.24;106384;1264;2563043;-71
2022/05/29 07:48:40;;;;;;;2.80;1.10;;;;;;;29.32;21.86;96326.56;108116;1263;58585;-72
2022/05/29 07:51:13;;;;;;;3.20;1.50;;;;;;;30.09;22.43;96323.61;108153;1261;34475;-72
2022/05/29 07:53:54;;;;;;;1.70;1.20;;;;;;;30.79;21.87;96322.42;108163;1264;55867;-72
2022/05/29 07:56:29;;;;;;;3.90;1.20;;;;;;;33.33;21.40;96326.09;108164;1262;60300;-72
2022/05/29 07:59:05;;;;;;;3.60;1.30;;;;;;;34.83;19.86;96327.23;108262;1264;63244;-71
2022/05/29 08:01:47;;;;;;;2.20;1.20;;;;;;;36.12;19.20;96329.17;107959;1261;475469;-73
2022/05/29 08:04:22;;;;;;;1.50;1.20;;;;;;;37.73;18.69;96330.91;108232;1263;64791;-73
2022/05/29 08:07:00;;;;;;;3.30;1.20;;;;;;;37.19;16.18;96329.63;108205;1262;57242;-72
2022/05/29 08:09:29;;;;;;;;;;;;;;;35.35;17.85;96329.16;108243;1262;60872;-72
2022/05/29 08:12:12;;;;;;;2.60;1.40;;;;;;;36.73;18.37;96323.96;108157;1262;63476;-73
2022/05/29 08:14:45;;;;;;;;;;;;;;;38.44;17.89;96322.49;108300;1264;69579;-73
2022/05/29 08:17:18;;;;;;;1.90;1.10;;;;;;;38.26;17.15;96322.17;108117;1264;67366;-73
2022/05/29 08:19:50;;;;;;;3.10;1.30;;;;;;;38.76;17.40;96322.71;108136;1261;72090;-73
2022/05/29 08:22:24;;;;;;;2.30;1.20;;;;;;;39.41;16.71;96322.60;108231;1264;57863;-73
2022/05/29 08:31:03;;;;;;;3.30;1.30;;;;;;;36.10;18.50;96319.88;107649;1267;59303;-70
2022/05/29 08:33:43;;;;;;;2.20;1.30;;;;;;;34.40;18.79;96318.95;108063;1264;55790;-70
2022/05/29 08:36:24;;;;;;;2.30;1.40;;;;;;;32.81;19.54;96315.77;108148;1264;67073;-70
2022/05/29 08:39:06;;;;;;;3.00;1.40;;;;;;;33.06;20.51;96314.71;107980;1264;60462;-70
2022/05/29 08:41:46;;;;;;;3.40;1.30;;;;;;;33.93;19.13;96306.55;108050;1264;73979;-70
2022/05/29 08:44:39;;;;;;;2.70;1.50;;;;;;;32.44;18.80;96301.86;108058;1261;75771;-72
2022/05/29 08:47:16;;;;;;;3.10;1.40;;;;;;;29.94;20.68;96304.80;108246;1261;71889;-71
2022/05/29 08:49:49;;;;;;;4.40;1.70;;;;;;;28.52;21.80;96308.13;108129;1261;69618;-72
2022/05/29 08:52:39;;;;;;;2.80;1.20;;;;;;;27.58;23.11;96301.55;108137;1264;61842;-71
2022/05/29 08:55:14;;;;;;;3.40;1.40;;;;;;;29.02;23.67;96297.15;108196;1261;63735;-70
2022/05/29 08:58:04;;;;;;;3.20;1.40;;;;;;;29.17;23.32;96293.88;108198;1264;66959;-70
2022/05/29 09:00:47;;;;;;;4.90;1.90;;;;;;;27.61;23.64;96300.19;108200;1264;73890;-70
2022/05/29 09:03:38;;;;;;;3.80;1.30;;;;;;;26.22;24.78;96296.70;108272;1264;55913;-70
2022/05/29 09:06:15;;;;;;;3.60;1.30;;;;;;;25.38;25.69;96303.23;108112;1263;64169;-71
2022/05/29 09:08:54;;;;;;;2.60;1.10;;;;;;;24.57;26.22;96303.88;108203;1264;71520;-71
2022/05/29 09:11:32;;;;;;;3.60;1.30;;;;;;;24.05;26.81;96299.88;108042;1261;59831;-70
2022/05/29 09:14:23;;;;;;;4.20;1.60;;;;;;;23.61;26.90;96305.69;108175;1264;69914;-70
2022/05/29 09:16:59;;;;;;;4.40;1.70;;;;;;;23.17;27.45;96310.01;108188;1264;52212;-70
2022/05/29 09:19:45;;;;;;;4.20;1.50;;;;;;;22.60;28.05;96310.71;108178;1264;57957;-70
2022/05/29 09:22:23;;;;;;;3.90;1.30;;;;;;;22.04;28.33;96305.63;108297;1261;59830;-73
2022/05/29 09:25:05;;;;;;;4.00;1.50;;;;;;;21.63;29.26;96301.64;108221;1264;58354;-71
2022/05/29 09:27:45;;;;;;;5.00;1.80;;;;;;;21.70;30.00;96298.38;107988;1261;62655;-70
2022/05/29 09:30:17;;;;;;;4.90;1.40;;;;;;;21.92;30.69;96292.30;108180;1264;49498;-70
2022/05/29 09:32:57;;;;;;;4.40;1.40;;;;;;;22.24;29.71;96291.09;108262;1262;27823;-70
2022/05/29 09:35:34;;;;;;;3.10;1.30;;;;;;;22.12;29.68;96287.55;108055;1264;61706;-68
2022/05/29 09:38:24;;;;;;;4.60;1.40;;;;;;;21.70;30.20;96288.65;107995;1264;64197;-71
2022/05/29 09:41:07;;;;;;;3.00;1.50;;;;;;;21.41;31.40;96287.42;108058;1264;80818;-71
2022/05/29 09:43:39;;;;;;;3.60;1.40;;;;;;;21.24;32.56;96284.75;108013;1264;79439;-72
2022/05/29 09:46:25;;;;;;;6.20;2.00;;;;;;;21.48;33.63;96275.83;108129;1264;61463;-70
2022/05/29 09:51:56;;;;;;;3.50;1.30;;;;;;;22.30;32.45;96268.96;108276;1264;59146;-71
2022/05/29 09:54:32;;;;;;;3.50;1.60;;;;;;;21.96;31.77;96264.67;108155;1264;62038;-71
2022/05/29 09:57:13;;;;;;;4.20;1.80;;;;;;;22.01;33.10;96261.91;108237;1263;61019;-70
2022/05/29 09:59:48;;;;;;;5.80;1.50;;;;;;;21.51;30.71;96262.66;108259;1264;58111;-70
2022/05/29 10:02:29;;;;;;;5.70;1.50;;;;;;;20.07;31.94;96261.70;108121;1264;82694;-70
2022/05/29 10:04:59;;;;;;;;;;;;;;;19.53;33.60;96258.89;108252;1263;66931;-71
2022/05/29 10:07:37;;;;;;;3.00;1.30;;;;;;;19.72;34.03;96254.84;108174;1264;62514;-69
2022/05/29 10:10:11;;;;;;;2.60;1.30;;;;;;;20.20;33.65;96249.98;108116;1263;77712;-69
2022/05/29 10:12:45;;;;;;;3.10;1.40;;;;;;;20.40;35.13;96246.42;108278;1264;65600;-71
2022/05/29 10:15:37;;;;;;;4.20;1.50;;;;;;;20.83;34.68;96250.02;107983;1264;62417;-71
2022/05/29 10:18:31;;;;;;;3.00;1.50;;;;;;;21.18;34.68;96246.20;108076;1264;63757;-69
2022/05/29 10:21:16;;;;;;;3.30;1.30;;;;;;;21.38;34.09;96245.20;108256;1263;63902;-70
2022/05/29 10:23:53;;;;;;;5.80;1.60;;;;;;;21.13;33.45;96244.63;108176;1264;59396;-71
2022/05/29 10:26:35;;;;;;;4.90;1.60;;;;;;;20.86;34.51;96242.14;108001;1263;72093;-70
2022/05/29 10:29:23;;;;;;;4.30;1.50;;;;;;;21.22;35.10;96242.89;108180;1263;64497;-70
2022/05/29 10:31:55;;;;;;;4.70;1.60;;;;;;;21.34;35.19;96237.11;108153;1264;63642;-69
2022/05/29 10:34:30;;;;;;;4.20;1.40;;;;;;;21.23;34.75;96233.90;108068;1264;70498;-70
2022/05/29 10:37:23;;;;;;;3.50;1.60;;;;;;;20.98;34.61;96235.46;108098;1264;61573;-70
2022/05/29 10:40:10;;;;;;;4.40;1.40;;;;;;;20.80;34.62;96234.63;108112;1264;60783;-70
2022/05/29 10:42:45;;;;;;;3.00;1.30;;;;;;;20.80;35.00;96232.86;108230;1264;60976;-70
2022/05/29 10:45:26;;;;;;;4.10;1.70;;;;;;;20.80;34.63;96231.38;108231;1264;73894;-71
2022/05/29 10:48:36;;;;;;;3.50;1.30;;;;;;;20.63;34.97;96235.80;108065;1264;66657;-71
2022/05/29 10:51:24;;;;;;;3.20;1.10;;;;;;;20.70;35.04;96237.96;107884;1264;66329;-69
2022/05/29 10:54:21;;;;;;;3.20;1.50;;;;;;;20.72;33.52;96236.45;107980;1264;62100;-68
2022/05/29 10:57:05;;;;;;;4.60;1.50;;;;;;;20.70;34.84;96234.49;107852;1266;60827;-70
2022/05/29 11:00:00;;;;;;;5.90;1.50;;;;;;;20.71;36.04;96226.27;108039;1264;40532;-70
2022/05/29 11:06:17;;;;;;;7.00;2.30;;;;;;;20.47;34.78;96231.27;108013;1264;45374;-70
2022/05/29 11:09:01;;;;;;;15.40;6.70;;;;;;;19.91;34.78;96229.27;108163;1264;28532;-70
2022/05/29 11:11:48;;;;;;;6.20;2.70;;;;;;;19.65;35.41;96232.69;108195;1264;37106;-70
2022/05/29 11:14:52;;;;;;;4.60;2.80;;;;;;;19.53;35.86;96234.19;108201;1264;35654;-70
2022/05/29 11:17:36;;;;;;;2.80;1.40;;;;;;;19.46;35.87;96236.95;108247;1264;30446;-70
2022/05/29 11:20:37;;;;;;;4.10;1.80;;;;;;;18.98;35.61;96239.23;106403;1264;2340039;-70
2022/05/29 11:23:17;;;;;;;;;;;;;;;18.56;36.35;96243.73;108143;1264;41258;-70
2022/05/29 11:25:58;;;;;;;2.30;1.40;;;;;;;18.58;37.07;96245.48;108005;1264;36241;-70
2022/05/29 11:28:52;;;;;;;3.10;1.30;;;;;;;18.66;37.23;96242.77;108065;1264;35205;-70
2022/05/29 11:31:39;;;;;;;5.40;2.20;;;;;;;18.75;37.26;96235.53;108075;1264;32125;-70
2022/05/29 11:34:26;;;;;;;6.30;1.70;;;;;;;18.74;37.22;96236.64;107949;1264;35982;-70
2022/05/29 11:37:13;;;;;;;4.30;1.60;;;;;;;18.72;37.70;96239.70;108134;1264;38451;-71
2022/05/29 11:39:49;;;;;;;5.00;1.60;;;;;;;18.68;37.97;96238.83;108223;1263;37598;-70
2022/05/29 11:42:27;;;;;;;3.80;1.30;;;;;;;18.68;38.04;96236.15;108208;1264;38445;-70
2022/05/29 11:45:06;;;;;;;5.00;1.80;;;;;;;18.70;37.86;96234.59;108011;1264;31972;-70
2022/05/29 11:53:34;;;;;;;3.30;1.40;;;;;;;18.89;37.85;96231.55;108149;1264;34549;-70
2022/05/29 11:56:12;;;;;;;5.50;1.30;;;;;;;18.91;37.88;96230.45;108147;1264;33044;-69
2022/05/29 11:58:49;;;;;;;3.50;1.20;;;;;;;18.90;37.83;96225.20;108321;1264;36850;-70
2022/05/29 12:01:27;;;;;;;3.10;1.20;;;;;;;18.96;37.98;96217.77;108145;1264;32300;-70
2022/05/29 12:04:06;;;;;;;3.70;1.60;;;;;;;18.94;37.67;96216.16;108101;1264;28245;-70
2022/05/29 12:06:45;;;;;;;4.00;1.60;;;;;;;18.77;37.32;96211.94;107808;1264;44370;-71
2022/05/29 12:09:23;;;;;;;3.50;1.70;;;;;;;18.59;38.01;96212.90;108059;1262;31876;-70
2022/05/29 12:12:06;;;;;;;2.20;1.10;;;;;;;18.06;37.41;96211.61;108103;1264;36752;-70
2022/05/29 12:14:41;;;;;;;1.90;1.00;;;;;;;17.28;38.64;96208.82;107932;1264;91636;-72
2022/05/29 12:17:18;;;;;;;3.90;1.60;;;;;;;16.76;39.80;96203.90;108011;1263;49613;-71
2022/05/29 12:19:54;;;;;;;3.90;1.30;;;;;;;16.57;40.33;96195.16;108066;1264;60084;-72
2022/05/29 12:22:30;;;;;;;11.00;5.70;;;;;;;16.44;41.09;96185.02;107837;1264;76616;-71
2022/05/29 12:25:04;;;;;;;5.50;2.10;;;;;;;16.58;41.07;96174.61;108105;1264;43503;-71
2022/05/29 12:27:37;;;;;;;13.00;6.90;;;;;;;16.74;40.68;96175.30;108247;1264;30145;-71
2022/05/29 12:30:19;;;;;;;9.20;5.50;;;;;;;16.82;40.58;96174.13;108206;1264;33432;-72
2022/05/29 12:32:50;;;;;;;9.80;5.50;;;;;;;16.98;41.24;96169.70;108278;1264;31628;-71
2022/05/29 12:35:27;;;;;;;2.40;1.30;;;;;;;17.05;40.62;96172.42;108272;1263;28031;-71
2022/05/29 12:38:25;;;;;;;4.80;1.40;;;;;;;16.88;40.31;96173.56;108200;1264;33646;-71
2022/05/29 12:41:14;;;;;;;6.20;3.70;;;;;;;16.96;41.10;96180.45;108194;1264;31663;-71
2022/05/29 12:44:27;;;;;;;5.00;1.80;;;;;;;17.15;40.78;96184.53;108145;1264;32222;-72
2022/05/29 12:47:31;;;;;;;5.30;3.00;;;;;;;17.31;40.78;96192.59;108043;1262;30096;-72
2022/05/29 12:50:25;;;;;;;3.10;1.30;;;;;;;17.38;40.80;96191.45;108054;1264;42233;-72
2022/05/29 12:53:43;;;;;;;4.20;2.20;;;;;;;17.52;40.68;96192.52;108145;1264;33131;-72